Hauptseite
METAR-TAF:

METAR-TAF

Flughäfen :

Flughafen Reus

Reus, Spanien

Breite: 41-09N, Länge: 001-10E, Höhe: 71 m

Beobachtung

Neuester Wetterbericht von vor 51 Minuten, um 11:30 UTC
Wind 4 kt aus Südost, variierte zwischen Ost und Südwest
Temperatur 17°C
Luftfeuchtigkeit 52%
Luftdruck 1025 hPa
Sichtweite 10 km oder mehr
Leicht bewölkt in der Höhe von 3000 ft

METAR: LERS 081130Z 14004KT 080V220 9999 FEW030 17/07 Q1025

Zeit: 14:21 (12:21 UTC)

Prognose

Neuester Wetterbericht von vor 4 Stunden und 21 Minuten, um 08:00 UTC
Gültige Prognose vom 08 um 09 UTC bis 09 um 09 UTC
Wind 3 kt aus unterschiedlichen Richtungen
Sichtweite 10 km oder mehr
Leicht bewölkt in der Höhe von 3000 ft
Zeitweise
vom 08 um 10 UTC bis 08 um 18 UTC
Wind 7 kt aus Süd

TAF: LERS 080800Z 0809/0909 VRB03KT 9999 FEW030 TX19/0812Z TN07/0906Z TEMPO 0810/0818 18007KT

Wetterbeobachtungen und Prognosen von mehr als 4000 Flughäfen (METAR und TAF Bericht).

Die verfügbaren Stationen werden durch gelbe und rote Markierungen auf der Karte dargestellt.

Führen Sie die Maus auf sie, um den Namen der Station zu sehen.

Darauf klicken, um die Beobachtung von Wetterbeobachtungen und Prognosen zu sehen.

Um die Karte zu ändern : klicken Sie auf den grünen Tasten mit einem schwarzen Kreuz Zum Vergrößern, auf den grünen Button mit einem Gedankenstrich zu verkleinern, oder auf die grünen Pfeile für benachbarte Karten.


METAR-TAF: